createdAt,value
2018-12-05T00:00:14.826Z,7.24
2018-12-05T00:02:43.637Z,7.23
2018-12-05T00:05:12.435Z,7.21
2018-12-05T00:07:41.277Z,7.18
2018-12-05T00:10:10.098Z,7.19
2018-12-05T00:12:38.807Z,7.20
2018-12-05T00:15:07.610Z,7.19
2018-12-05T00:17:36.482Z,7.17
2018-12-05T00:20:07.170Z,7.17
2018-12-05T00:22:35.919Z,7.15
2018-12-05T00:25:04.803Z,7.15
2018-12-05T00:27:33.464Z,7.11
2018-12-05T00:30:02.259Z,7.07
2018-12-05T00:32:30.991Z,7.05
2018-12-05T00:34:59.804Z,7.05
2018-12-05T00:37:28.629Z,7.01
2018-12-05T00:39:57.459Z,7.00
2018-12-05T00:42:26.147Z,6.97
2018-12-05T00:44:54.830Z,6.95
2018-12-05T00:47:23.672Z,6.91
2018-12-05T00:49:52.334Z,6.90
2018-12-05T00:52:21.045Z,6.91
2018-12-05T00:54:49.722Z,6.92
2018-12-05T00:57:18.606Z,6.91
2018-12-05T00:59:47.425Z,6.91
2018-12-05T01:02:16.269Z,6.93
2018-12-05T01:04:45.067Z,6.94
2018-12-05T01:07:13.895Z,6.95
2018-12-05T01:09:42.775Z,6.94
2018-12-05T01:12:11.535Z,6.87
2018-12-05T01:14:40.343Z,6.59
2018-12-05T01:17:09.366Z,6.88
2018-12-05T01:19:38.147Z,6.82
2018-12-05T01:22:06.892Z,6.78
2018-12-05T01:24:35.650Z,6.73
2018-12-05T01:27:04.422Z,6.71
2018-12-05T01:29:33.278Z,6.69
2018-12-05T01:32:02.171Z,6.68
2018-12-05T01:34:31.896Z,6.72
2018-12-05T01:37:00.715Z,6.76
2018-12-05T01:39:29.464Z,6.76
2018-12-05T01:41:58.265Z,6.79
2018-12-05T01:44:27.159Z,6.79
2018-12-05T01:46:56.106Z,6.74
2018-12-05T01:49:25.719Z,6.76
2018-12-05T01:51:54.527Z,6.74
2018-12-05T01:54:23.311Z,6.75
2018-12-05T01:56:52.151Z,6.77
2018-12-05T01:59:21.088Z,6.75
2018-12-05T02:01:50.059Z,6.76
2018-12-05T02:04:18.871Z,6.70
2018-12-05T02:06:47.628Z,6.68
2018-12-05T02:09:16.344Z,6.72
2018-12-05T02:11:45.159Z,6.79
2018-12-05T02:14:14.997Z,6.77
2018-12-05T02:16:44.715Z,6.79
2018-12-05T02:19:13.431Z,6.75
2018-12-05T02:21:42.146Z,6.68
2018-12-05T02:24:10.861Z,6.64
2018-12-05T02:26:39.576Z,6.64
2018-12-05T02:29:08.244Z,6.61
2018-12-05T02:31:36.973Z,6.60
2018-12-05T02:34:05.751Z,6.64
2018-12-05T02:36:34.465Z,6.63
2018-12-05T02:39:03.991Z,6.60
2018-12-05T02:41:33.791Z,6.63
2018-12-05T02:44:02.551Z,6.48
2018-12-05T02:46:31.388Z,6.63
2018-12-05T02:49:00.135Z,6.62
2018-12-05T02:51:28.865Z,6.63
2018-12-05T02:53:57.661Z,6.59
2018-12-05T02:56:26.412Z,6.54
2018-12-05T02:58:55.069Z,6.52
2018-12-05T03:01:23.861Z,6.52
2018-12-05T03:03:52.647Z,6.51
2018-12-05T03:06:21.391Z,6.47
2018-12-05T03:08:50.103Z,6.47
2018-12-05T03:11:18.853Z,6.45
2018-12-05T03:13:47.515Z,6.45
2018-12-05T03:16:17.274Z,6.44
2018-12-05T03:18:45.991Z,6.44
2018-12-05T03:21:14.691Z,6.44
2018-12-05T03:23:43.408Z,6.43
2018-12-05T03:26:12.113Z,6.41
2018-12-05T03:28:40.780Z,6.39
2018-12-05T03:31:09.496Z,6.40
2018-12-05T03:33:38.284Z,6.38
2018-12-05T03:36:07.009Z,6.36
2018-12-05T03:38:35.672Z,6.34
2018-12-05T03:41:04.373Z,6.33
2018-12-05T03:43:33.098Z,6.29
2018-12-05T03:46:01.811Z,6.32
2018-12-05T03:48:30.475Z,6.34
2018-12-05T03:50:59.180Z,6.26
2018-12-05T03:53:27.951Z,6.26
2018-12-05T03:55:56.698Z,6.19
2018-12-05T03:58:25.515Z,6.17
2018-12-05T04:00:54.333Z,6.17
2018-12-05T04:03:23.022Z,6.20
2018-12-05T04:05:51.822Z,6.15
2018-12-05T04:08:20.622Z,6.15
2018-12-05T04:10:49.335Z,6.11
2018-12-05T04:13:17.979Z,6.11
2018-12-05T04:15:46.648Z,6.09
2018-12-05T04:18:15.359Z,6.02
2018-12-05T04:20:44.071Z,5.94
2018-12-05T04:23:12.910Z,5.94
2018-12-05T04:25:41.656Z,5.96
2018-12-05T04:28:11.535Z,5.93
2018-12-05T04:30:40.283Z,5.98
2018-12-05T04:33:11.015Z,5.94
2018-12-05T04:35:39.700Z,5.90
2018-12-05T04:38:08.431Z,5.86
2018-12-05T04:40:37.166Z,5.84
2018-12-05T04:43:05.995Z,5.82
2018-12-05T04:45:34.864Z,5.83
2018-12-05T04:48:03.602Z,5.79
2018-12-05T04:50:32.351Z,5.79
2018-12-05T04:53:01.070Z,5.88
2018-12-05T04:55:29.800Z,6.01
2018-12-05T04:57:58.482Z,5.94
2018-12-05T05:00:27.979Z,5.87
2018-12-05T05:02:56.678Z,5.78
2018-12-05T05:05:25.402Z,5.77
2018-12-05T05:07:54.050Z,5.76
2018-12-05T05:10:22.769Z,5.75
2018-12-05T05:12:51.479Z,5.75
2018-12-05T05:15:20.204Z,5.70
2018-12-05T05:17:48.918Z,5.68
2018-12-05T05:20:17.678Z,5.67
2018-12-05T05:22:46.477Z,5.65
2018-12-05T05:25:15.246Z,5.64
2018-12-05T05:27:46.036Z,5.64
2018-12-05T05:30:14.678Z,5.64
2018-12-05T05:32:45.275Z,5.61
2018-12-05T05:35:13.962Z,5.58
2018-12-05T05:37:42.623Z,5.56
2018-12-05T05:40:11.414Z,5.52
2018-12-05T05:42:40.160Z,5.50
2018-12-05T05:45:08.882Z,5.50
2018-12-05T05:47:37.581Z,5.50
2018-12-05T05:50:06.985Z,5.45
2018-12-05T05:52:35.674Z,5.48
2018-12-05T05:55:04.618Z,5.48
2018-12-05T05:57:33.341Z,5.49
2018-12-05T06:00:02.055Z,5.50
2018-12-05T06:02:30.763Z,5.48
2018-12-05T06:04:59.408Z,5.45
2018-12-05T06:07:28.134Z,5.46
2018-12-05T06:09:56.900Z,5.49
2018-12-05T06:12:25.690Z,5.48
2018-12-05T06:14:54.431Z,5.45
2018-12-05T06:17:23.195Z,5.45
2018-12-05T06:19:51.899Z,5.46
2018-12-05T06:22:20.579Z,5.47
2018-12-05T06:24:49.283Z,5.54
2018-12-05T06:27:18.043Z,5.50
2018-12-05T06:29:47.614Z,5.55
2018-12-05T06:32:16.314Z,5.49
2018-12-05T06:34:45.033Z,5.48
2018-12-05T06:37:13.798Z,5.45
2018-12-05T06:39:42.461Z,5.43
2018-12-05T06:42:11.147Z,5.35
2018-12-05T06:44:39.875Z,5.36
2018-12-05T06:47:08.579Z,5.32
2018-12-05T06:49:37.334Z,5.30
2018-12-05T06:52:06.023Z,5.25
2018-12-05T06:54:34.735Z,5.23
2018-12-05T06:57:03.551Z,5.22
2018-12-05T06:59:32.251Z,5.19
2018-12-05T07:02:00.970Z,5.19
2018-12-05T07:04:30.810Z,5.22
2018-12-05T07:06:59.502Z,5.26
2018-12-05T07:09:28.185Z,5.29
2018-12-05T07:11:56.951Z,5.31
2018-12-05T07:14:25.619Z,5.26
2018-12-05T07:16:54.270Z,5.23
2018-12-05T07:19:22.960Z,5.28
2018-12-05T07:21:51.690Z,5.29
2018-12-05T07:24:20.394Z,5.27
2018-12-05T07:26:49.061Z,5.25
2018-12-05T07:29:17.778Z,5.23
2018-12-05T07:31:46.476Z,5.25
2018-12-05T07:34:15.187Z,5.24
2018-12-05T07:36:44.410Z,5.24
2018-12-05T07:39:14.089Z,5.22
2018-12-05T07:41:42.760Z,5.24
2018-12-05T07:44:11.490Z,5.25
2018-12-05T07:46:40.227Z,5.24
2018-12-05T07:49:08.893Z,5.24
2018-12-05T07:51:37.590Z,5.27
2018-12-05T07:54:06.276Z,5.25
2018-12-05T07:56:35.026Z,5.27
2018-12-05T07:59:03.814Z,5.27
2018-12-05T08:01:32.559Z,5.33
2018-12-05T08:04:01.231Z,5.33
2018-12-05T08:06:29.927Z,5.37
2018-12-05T08:08:58.592Z,5.39
2018-12-05T08:11:27.258Z,5.40
2018-12-05T08:13:56.007Z,5.41
2018-12-05T08:16:24.715Z,5.43
2018-12-05T08:18:53.391Z,5.38
2018-12-05T08:21:22.118Z,5.50
2018-12-05T08:23:50.836Z,5.56
2018-12-05T08:26:19.567Z,5.59
2018-12-05T08:28:48.278Z,5.59
2018-12-05T08:31:17.018Z,5.67
2018-12-05T08:33:45.726Z,5.70
2018-12-05T08:36:14.454Z,5.73
2018-12-05T08:38:43.165Z,5.73
2018-12-05T08:41:11.955Z,5.78
2018-12-05T08:43:40.659Z,5.81
2018-12-05T08:46:09.451Z,5.83
2018-12-05T08:48:38.143Z,5.88
2018-12-05T08:51:06.854Z,5.95
2018-12-05T08:53:35.599Z,6.00
2018-12-05T08:56:04.316Z,6.01
2018-12-05T08:58:33.098Z,6.09
2018-12-05T09:01:01.963Z,6.15
2018-12-05T09:03:30.771Z,6.19
2018-12-05T09:05:59.482Z,6.24
2018-12-05T09:08:28.253Z,6.27
2018-12-05T09:10:57.010Z,6.31
2018-12-05T09:13:25.666Z,6.36
2018-12-05T09:15:54.369Z,6.44
2018-12-05T09:18:23.090Z,6.48
2018-12-05T09:20:51.774Z,6.51
2018-12-05T09:23:20.514Z,6.58
2018-12-05T09:25:49.231Z,6.55
2018-12-05T09:28:17.951Z,6.63
2018-12-05T09:30:46.672Z,6.74
2018-12-05T09:33:15.383Z,6.75
2018-12-05T09:35:44.027Z,6.75
2018-12-05T09:38:12.739Z,6.83
2018-12-05T09:40:41.453Z,6.79
2018-12-05T09:43:10.169Z,6.84
2018-12-05T09:45:38.866Z,6.95
2018-12-05T09:48:07.568Z,7.06
2018-12-05T09:50:36.286Z,7.03
2018-12-05T09:53:05.054Z,7.12
2018-12-05T09:55:33.774Z,7.26
2018-12-05T09:58:02.494Z,7.46
2018-12-05T10:00:31.195Z,7.54
2018-12-05T10:02:59.903Z,7.59
2018-12-05T10:05:28.600Z,7.54
2018-12-05T10:07:57.342Z,7.59
2018-12-05T10:10:26.058Z,7.63
2018-12-05T10:12:54.771Z,7.66
2018-12-05T10:15:23.538Z,7.79
2018-12-05T10:17:52.268Z,7.85
2018-12-05T10:20:22.006Z,7.99
2018-12-05T10:22:50.706Z,8.01
2018-12-05T10:25:19.410Z,7.92
2018-12-05T10:27:48.102Z,7.90
2018-12-05T10:30:16.841Z,7.95
2018-12-05T10:32:45.551Z,8.02
2018-12-05T10:35:14.234Z,8.44
2018-12-05T10:37:42.935Z,8.46
2018-12-05T10:40:11.638Z,8.37
2018-12-05T10:42:40.335Z,8.28
2018-12-05T10:45:09.038Z,8.35
2018-12-05T10:47:37.755Z,8.52
2018-12-05T10:50:07.395Z,8.45
2018-12-05T10:52:36.086Z,8.61
2018-12-05T10:55:05.429Z,8.75
2018-12-05T10:57:34.143Z,8.74
2018-12-05T11:00:03.122Z,8.75
2018-12-05T11:02:37.339Z,8.79
2018-12-05T11:05:11.559Z,8.68
2018-12-05T11:07:45.766Z,8.75
2018-12-05T11:10:20.035Z,8.68
2018-12-05T11:12:54.219Z,8.65
2018-12-05T11:15:28.398Z,8.69
2018-12-05T11:18:02.639Z,8.55
2018-12-05T11:20:36.818Z,8.50
2018-12-05T11:23:14.697Z,8.57
2018-12-05T11:25:44.285Z,8.64
2018-12-05T11:28:13.005Z,8.53
2018-12-05T11:30:42.779Z,8.63
2018-12-05T11:33:11.534Z,8.69
2018-12-05T11:35:40.234Z,8.72
2018-12-05T11:38:08.943Z,8.71
2018-12-05T11:40:37.698Z,8.80
2018-12-05T11:43:06.439Z,8.93
2018-12-05T11:45:35.118Z,9.01
2018-12-05T11:48:03.855Z,8.82
2018-12-05T11:50:32.581Z,8.83
2018-12-05T11:53:01.340Z,9.01
2018-12-05T11:55:30.093Z,8.93
2018-12-05T11:57:58.839Z,8.95
2018-12-05T12:00:27.550Z,9.06
2018-12-05T12:02:56.266Z,9.08
2018-12-05T12:05:26.989Z,9.09
2018-12-05T12:07:55.761Z,9.11
2018-12-05T12:10:28.684Z,9.05
2018-12-05T12:13:05.582Z,9.06
2018-12-05T12:15:34.350Z,9.20
2018-12-05T12:18:03.107Z,9.13
2018-12-05T12:20:31.819Z,9.14
2018-12-05T12:23:00.587Z,9.15
2018-12-05T12:25:29.315Z,9.14
2018-12-05T12:27:57.994Z,9.14
2018-12-05T12:30:26.718Z,9.23
2018-12-05T12:32:55.466Z,9.36
2018-12-05T12:35:24.208Z,9.33
2018-12-05T12:37:52.951Z,9.23
2018-12-05T12:40:21.695Z,9.31
2018-12-05T12:42:50.415Z,9.25
2018-12-05T12:45:20.109Z,9.29
2018-12-05T12:47:48.922Z,9.39
2018-12-05T12:50:17.657Z,9.35
2018-12-05T12:52:46.347Z,9.26
2018-12-05T12:55:15.162Z,9.29
2018-12-05T12:57:43.870Z,9.33
2018-12-05T13:00:12.573Z,9.10
2018-12-05T13:02:41.224Z,9.06
2018-12-05T13:05:09.990Z,9.12
2018-12-05T13:07:38.695Z,9.20
2018-12-05T13:10:07.774Z,9.20
2018-12-05T13:12:36.466Z,9.61
2018-12-05T13:15:05.383Z,9.50
2018-12-05T13:17:34.128Z,9.42
2018-12-05T13:20:02.935Z,9.39
2018-12-05T13:22:31.635Z,9.47
2018-12-05T13:25:00.306Z,9.50
2018-12-05T13:27:29.038Z,9.51
2018-12-05T13:29:57.769Z,9.47
2018-12-05T13:32:26.500Z,9.53
2018-12-05T13:34:55.918Z,9.51
2018-12-05T13:37:24.579Z,9.40
2018-12-05T13:39:53.467Z,9.50
2018-12-05T13:42:22.206Z,9.42
2018-12-05T13:44:50.902Z,9.49
2018-12-05T13:47:19.638Z,9.60
2018-12-05T13:49:48.359Z,9.49
2018-12-05T13:52:17.089Z,9.47
2018-12-05T13:54:45.866Z,9.44
2018-12-05T13:57:15.127Z,9.45
2018-12-05T13:59:43.922Z,9.29
2018-12-05T14:02:12.667Z,9.22
2018-12-05T14:04:41.447Z,9.19
2018-12-05T14:07:10.162Z,9.29
2018-12-05T14:09:38.846Z,9.25
2018-12-05T14:12:09.531Z,9.29
2018-12-05T14:14:38.249Z,9.28
2018-12-05T14:17:06.955Z,9.23
2018-12-05T14:19:35.675Z,9.27
2018-12-05T14:22:04.427Z,9.25
2018-12-05T14:24:33.122Z,9.29
2018-12-05T14:27:01.799Z,9.36
2018-12-05T14:29:30.475Z,9.29
2018-12-05T14:31:59.123Z,9.15
2018-12-05T14:34:27.854Z,9.18
2018-12-05T14:36:56.607Z,9.22
2018-12-05T14:39:25.312Z,9.24
2018-12-05T14:41:54.075Z,9.29
2018-12-05T14:44:22.767Z,9.28
2018-12-05T14:46:51.552Z,9.24
2018-12-05T14:49:20.183Z,9.21
2018-12-05T14:51:48.880Z,9.11
2018-12-05T14:54:17.590Z,9.07
2018-12-05T14:56:46.283Z,9.09
2018-12-05T14:59:15.023Z,9.01
2018-12-05T15:01:43.827Z,9.05
2018-12-05T15:04:13.315Z,9.00
2018-12-05T15:06:41.995Z,9.04
2018-12-05T15:09:11.496Z,9.07
2018-12-05T15:11:40.398Z,8.97
2018-12-05T15:14:09.127Z,8.93
2018-12-05T15:16:37.859Z,8.96
2018-12-05T15:19:06.671Z,8.96
2018-12-05T15:21:35.510Z,8.87
2018-12-05T15:24:04.254Z,8.72
2018-12-05T15:26:33.095Z,8.65
2018-12-05T15:29:01.947Z,8.86
2018-12-05T15:31:30.727Z,8.88
2018-12-05T15:34:00.486Z,8.94
2018-12-05T15:36:29.121Z,8.88
2018-12-05T15:38:57.923Z,8.90
2018-12-05T15:41:26.671Z,8.83
2018-12-05T15:43:55.421Z,8.80
2018-12-05T15:46:24.194Z,8.77
2018-12-05T15:48:52.919Z,8.70
2018-12-05T15:51:21.647Z,8.72
2018-12-05T15:53:50.354Z,8.79
2018-12-05T15:56:19.091Z,8.81
2018-12-05T15:58:47.802Z,8.86
2018-12-05T16:01:16.475Z,8.83
2018-12-05T16:03:45.247Z,8.83
2018-12-05T16:06:13.987Z,8.86
2018-12-05T16:08:42.833Z,8.72
2018-12-05T16:11:11.483Z,8.72
2018-12-05T16:13:40.207Z,8.76
2018-12-05T16:16:08.937Z,8.74
2018-12-05T16:18:37.710Z,8.78
2018-12-05T16:21:06.515Z,8.84
2018-12-05T16:23:35.196Z,8.89
2018-12-05T16:26:10.464Z,8.92
2018-12-05T16:28:34.554Z,8.91
2018-12-05T16:31:03.253Z,8.86
2018-12-05T16:33:31.942Z,8.88
2018-12-05T16:36:00.745Z,8.88
2018-12-05T16:38:29.488Z,8.79
2018-12-05T16:40:58.215Z,8.75
2018-12-05T16:43:26.923Z,8.85
2018-12-05T16:45:55.647Z,8.99
2018-12-05T16:48:24.295Z,9.50
2018-12-05T16:50:52.995Z,9.46
2018-12-05T16:53:21.705Z,9.41
2018-12-05T16:55:50.437Z,9.30
2018-12-05T16:58:19.207Z,9.28
2018-12-05T17:00:47.956Z,9.62
2018-12-05T17:03:16.814Z,9.64
2018-12-05T17:05:45.582Z,9.41
2018-12-05T17:08:14.242Z,9.28
2018-12-05T17:10:42.938Z,9.27
2018-12-05T17:13:14.386Z,9.35
2018-12-05T17:15:43.095Z,9.10
2018-12-05T17:18:11.808Z,9.07
2018-12-05T17:20:41.338Z,8.99
2018-12-05T17:23:10.031Z,9.04
2018-12-05T17:25:39.823Z,8.99
2018-12-05T17:28:08.543Z,8.86
2018-12-05T17:30:37.187Z,8.92
2018-12-05T17:33:05.944Z,8.87
2018-12-05T17:35:34.603Z,8.75
2018-12-05T17:38:03.374Z,8.49
2018-12-05T17:40:32.134Z,8.69
2018-12-05T17:43:01.607Z,8.79
2018-12-05T17:45:30.407Z,8.69
2018-12-05T17:47:59.140Z,8.81
2018-12-05T17:50:27.915Z,8.88
2018-12-05T17:52:56.694Z,8.88
2018-12-05T17:55:26.279Z,8.91
2018-12-05T17:57:54.986Z,9.00
2018-12-05T18:00:23.707Z,8.91
2018-12-05T18:02:52.425Z,8.96
2018-12-05T18:05:21.174Z,8.85
2018-12-05T18:07:49.809Z,8.89
2018-12-05T18:10:18.575Z,8.84
2018-12-05T18:12:47.290Z,8.83
2018-12-05T18:15:16.030Z,8.84
2018-12-05T18:17:45.010Z,8.95
2018-12-05T18:20:13.799Z,8.92
2018-12-05T18:22:42.518Z,8.93
2018-12-05T18:25:11.359Z,8.84
2018-12-05T18:27:40.102Z,8.85
2018-12-05T18:30:09.461Z,8.88
2018-12-05T18:32:38.241Z,8.86
2018-12-05T18:35:07.067Z,8.90
2018-12-05T18:37:35.806Z,9.00
2018-12-05T18:40:04.540Z,9.02
2018-12-05T18:42:33.256Z,9.05
2018-12-05T18:45:02.061Z,9.10
2018-12-05T18:47:31.887Z,9.15
2018-12-05T18:50:00.626Z,8.98
2018-12-05T18:52:29.406Z,9.03
2018-12-05T18:54:58.150Z,8.94
2018-12-05T18:57:27.040Z,9.04
2018-12-05T19:00:01.258Z,9.00
2018-12-05T19:02:26.467Z,9.03
2018-12-05T19:07:37.218Z,9.13
2018-12-05T19:10:06.015Z,9.09
2018-12-05T19:12:35.723Z,9.07
2018-12-05T19:15:04.850Z,9.07
2018-12-05T19:17:33.599Z,8.79
2018-12-05T19:20:02.378Z,8.77
2018-12-05T19:22:32.095Z,8.67
2018-12-05T19:25:00.901Z,8.73
2018-12-05T19:27:29.747Z,8.82
2018-12-05T19:29:58.446Z,8.79
2018-12-05T19:32:27.204Z,8.71
2018-12-05T19:34:56.255Z,8.67
2018-12-05T19:37:25.016Z,8.73
2018-12-05T19:39:53.767Z,8.81
2018-12-05T19:42:22.519Z,8.75
2018-12-05T19:44:51.279Z,8.73
2018-12-05T19:47:20.030Z,8.70
2018-12-05T19:49:48.772Z,8.51
2018-12-05T19:52:17.534Z,8.57
2018-12-05T19:54:46.213Z,8.58
2018-12-05T19:57:15.658Z,8.64
2018-12-05T19:59:44.438Z,8.66
2018-12-05T20:02:13.166Z,8.67
2018-12-05T20:04:41.877Z,8.78
2018-12-05T20:07:10.603Z,8.64
2018-12-05T20:09:39.327Z,8.63
2018-12-05T20:12:08.060Z,8.77
2018-12-05T20:14:36.714Z,8.79
2018-12-05T20:17:05.512Z,8.76
2018-12-05T20:19:35.026Z,8.74
2018-12-05T20:22:03.822Z,8.80
2018-12-05T20:24:32.558Z,8.78
2018-12-05T20:27:01.265Z,8.83
2018-12-05T20:29:30.062Z,8.74
2018-12-05T20:31:58.795Z,8.83
2018-12-05T20:34:27.554Z,8.83
2018-12-05T20:36:56.291Z,8.90
2018-12-05T20:39:26.179Z,9.05
2018-12-05T20:42:02.422Z,8.84
2018-12-05T20:44:31.147Z,9.09
2018-12-05T20:47:00.467Z,8.88
2018-12-05T20:49:29.145Z,9.16
2018-12-05T20:51:57.931Z,9.11
2018-12-05T20:54:26.710Z,9.12
2018-12-05T20:56:55.507Z,9.19
2018-12-05T20:59:24.237Z,9.25
2018-12-05T21:01:53.454Z,9.18
2018-12-05T21:04:22.686Z,9.14
2018-12-05T21:06:51.806Z,9.06
2018-12-05T21:09:20.658Z,8.97
2018-12-05T21:11:49.415Z,8.96
2018-12-05T21:14:18.914Z,9.09
2018-12-05T21:20:43.366Z,8.92
2018-12-05T21:23:12.087Z,8.80
2018-12-05T21:25:40.811Z,8.86
2018-12-05T21:28:10.293Z,8.90
2018-12-05T21:30:38.992Z,8.93
2018-12-05T21:33:07.753Z,8.95
2018-12-05T21:35:36.560Z,8.84
2018-12-05T21:38:05.379Z,8.90
2018-12-05T21:40:34.099Z,8.89
2018-12-05T21:43:02.817Z,8.94
2018-12-05T21:45:31.507Z,8.95
2018-12-05T21:48:00.226Z,9.15
2018-12-05T21:50:29.732Z,9.16
2018-12-05T21:52:58.390Z,9.21
2018-12-05T21:55:27.062Z,9.16
2018-12-05T21:57:55.779Z,9.14
2018-12-05T22:00:24.500Z,9.21
2018-12-05T22:02:53.218Z,9.18
2018-12-05T22:05:21.978Z,9.29
2018-12-05T22:07:50.648Z,9.35
2018-12-05T22:10:19.340Z,9.39
2018-12-05T22:12:48.058Z,9.45
2018-12-05T22:15:16.784Z,9.39
2018-12-05T22:17:45.554Z,9.46
2018-12-05T22:20:14.278Z,9.52
2018-12-05T22:22:43.015Z,9.51
2018-12-05T22:25:11.763Z,9.46
2018-12-05T22:27:40.460Z,9.38
2018-12-05T22:30:09.539Z,9.40
2018-12-05T22:32:38.225Z,9.29
2018-12-05T22:35:07.014Z,9.35
2018-12-05T22:37:35.670Z,9.31
2018-12-05T22:40:05.835Z,9.24
2018-12-05T22:42:34.519Z,9.22
2018-12-05T22:45:03.321Z,9.30
2018-12-05T22:47:32.084Z,9.36
2018-12-05T22:50:00.822Z,9.47
2018-12-05T22:52:29.499Z,9.36
2018-12-05T22:54:58.261Z,9.43
2018-12-05T22:57:26.997Z,9.49
2018-12-05T22:59:55.646Z,9.38
2018-12-05T23:02:24.362Z,9.45
2018-12-05T23:04:53.090Z,9.44
2018-12-05T23:07:21.770Z,9.53
2018-12-05T23:09:50.439Z,9.39
2018-12-05T23:12:19.161Z,9.45
2018-12-05T23:14:47.963Z,9.42
2018-12-05T23:17:16.687Z,9.32
2018-12-05T23:19:45.374Z,9.43
2018-12-05T23:22:14.085Z,9.53
2018-12-05T23:24:42.791Z,9.53
2018-12-05T23:27:11.474Z,9.52
2018-12-05T23:29:40.191Z,9.52
2018-12-05T23:32:08.934Z,9.43
2018-12-05T23:34:37.659Z,9.29
2018-12-05T23:37:06.342Z,9.30
2018-12-05T23:39:35.137Z,9.33
2018-12-05T23:42:03.900Z,9.42
2018-12-05T23:44:32.587Z,9.50
2018-12-05T23:47:01.347Z,9.55
2018-12-05T23:49:30.100Z,9.55
2018-12-05T23:51:58.815Z,9.42
2018-12-05T23:54:27.454Z,9.38
2018-12-05T23:56:56.202Z,9.51
2018-12-05T23:59:24.854Z,9.58
